sensor_id;sensor_type;location;lat;lon;timestamp;temperature;humidity
66928;DHT22;59882;45.624;11.698;2023-03-26T00:01:27;12.80;68.60
66928;DHT22;59882;45.624;11.698;2023-03-26T00:03:54;12.80;68.40
66928;DHT22;59882;45.624;11.698;2023-03-26T00:06:28;12.80;68.30
66928;DHT22;59882;45.624;11.698;2023-03-26T00:08:56;12.80;68.00
66928;DHT22;59882;45.624;11.698;2023-03-26T00:11:23;12.80;67.80
66928;DHT22;59882;45.624;11.698;2023-03-26T00:13:50;12.70;67.60
66928;DHT22;59882;45.624;11.698;2023-03-26T00:16:18;12.60;67.60
66928;DHT22;59882;45.624;11.698;2023-03-26T00:18:45;12.50;67.70
66928;DHT22;59882;45.624;11.698;2023-03-26T00:21:13;12.30;67.90
66928;DHT22;59882;45.624;11.698;2023-03-26T00:23:39;12.20;68.10
66928;DHT22;59882;45.624;11.698;2023-03-26T00:26:06;12.10;68.20
66928;DHT22;59882;45.624;11.698;2023-03-26T00:28:36;12.00;68.40
66928;DHT22;59882;45.624;11.698;2023-03-26T00:31:06;11.90;68.60
66928;DHT22;59882;45.624;11.698;2023-03-26T00:33:32;11.90;68.80
66928;DHT22;59882;45.624;11.698;2023-03-26T00:36:03;11.80;68.40
66928;DHT22;59882;45.624;11.698;2023-03-26T00:38:30;11.80;68.80
66928;DHT22;59882;45.624;11.698;2023-03-26T00:40:59;11.90;68.40
66928;DHT22;59882;45.624;11.698;2023-03-26T00:43:32;11.90;68.90
66928;DHT22;59882;45.624;11.698;2023-03-26T00:45:58;11.90;69.00
66928;DHT22;59882;45.624;11.698;2023-03-26T00:48:24;11.80;69.00
66928;DHT22;59882;45.624;11.698;2023-03-26T00:50:52;11.80;69.20
66928;DHT22;59882;45.624;11.698;2023-03-26T00:53:18;11.80;68.80
66928;DHT22;59882;45.624;11.698;2023-03-26T00:55:45;11.80;69.40
66928;DHT22;59882;45.624;11.698;2023-03-26T00:58:11;11.80;69.70
66928;DHT22;59882;45.624;11.698;2023-03-26T01:03:11;11.60;70.00
66928;DHT22;59882;45.624;11.698;2023-03-26T01:05:47;11.60;69.30
66928;DHT22;59882;45.624;11.698;2023-03-26T01:11:19;11.60;69.40
66928;DHT22;59882;45.624;11.698;2023-03-26T01:13:49;11.70;69.30
66928;DHT22;59882;45.624;11.698;2023-03-26T01:16:38;11.60;69.30
66928;DHT22;59882;45.624;11.698;2023-03-26T01:19:08;11.70;69.70
66928;DHT22;59882;45.624;11.698;2023-03-26T01:21:37;11.70;70.00
66928;DHT22;59882;45.624;11.698;2023-03-26T01:24:05;11.60;69.50
66928;DHT22;59882;45.624;11.698;2023-03-26T01:26:40;11.60;70.00
66928;DHT22;59882;45.624;11.698;2023-03-26T01:29:15;11.60;70.10
66928;DHT22;59882;45.624;11.698;2023-03-26T01:32:03;11.50;70.40
66928;DHT22;59882;45.624;11.698;2023-03-26T01:45:51;11.40;70.70
66928;DHT22;59882;45.624;11.698;2023-03-26T01:48:18;11.40;70.90
66928;DHT22;59882;45.624;11.698;2023-03-26T01:50:43;11.40;71.10
66928;DHT22;59882;45.624;11.698;2023-03-26T01:53:11;11.40;70.40
66928;DHT22;59882;45.624;11.698;2023-03-26T01:55:51;11.40;70.90
66928;DHT22;59882;45.624;11.698;2023-03-26T02:03:53;11.60;70.50
66928;DHT22;59882;45.624;11.698;2023-03-26T02:06:36;11.60;70.60
66928;DHT22;59882;45.624;11.698;2023-03-26T02:09:08;11.50;70.40
66928;DHT22;59882;45.624;11.698;2023-03-26T02:11:36;11.50;70.20
66928;DHT22;59882;45.624;11.698;2023-03-26T02:14:04;11.50;70.40
66928;DHT22;59882;45.624;11.698;2023-03-26T02:16:30;11.50;70.10
66928;DHT22;59882;45.624;11.698;2023-03-26T02:18:56;11.50;70.80
66928;DHT22;59882;45.624;11.698;2023-03-26T02:21:24;11.40;70.50
66928;DHT22;59882;45.624;11.698;2023-03-26T02:23:56;11.40;71.00
66928;DHT22;59882;45.624;11.698;2023-03-26T02:26:28;11.40;70.80
66928;DHT22;59882;45.624;11.698;2023-03-26T02:28:55;11.40;70.60
66928;DHT22;59882;45.624;11.698;2023-03-26T02:31:21;11.40;71.40
66928;DHT22;59882;45.624;11.698;2023-03-26T02:33:51;11.40;71.60
66928;DHT22;59882;45.624;11.698;2023-03-26T02:36:16;11.40;71.30
66928;DHT22;59882;45.624;11.698;2023-03-26T02:38:46;11.40;71.40
66928;DHT22;59882;45.624;11.698;2023-03-26T02:41:12;11.40;71.50
66928;DHT22;59882;45.624;11.698;2023-03-26T02:43:37;11.40;71.00
66928;DHT22;59882;45.624;11.698;2023-03-26T02:46:03;11.40;71.00
66928;DHT22;59882;45.624;11.698;2023-03-26T02:48:29;11.40;70.80
66928;DHT22;59882;45.624;11.698;2023-03-26T02:50:55;11.40;70.70
66928;DHT22;59882;45.624;11.698;2023-03-26T02:53:22;11.40;70.40
66928;DHT22;59882;45.624;11.698;2023-03-26T02:55:48;11.40;70.30
66928;DHT22;59882;45.624;11.698;2023-03-26T02:58:14;11.40;70.00
66928;DHT22;59882;45.624;11.698;2023-03-26T03:00:42;11.30;69.80
66928;DHT22;59882;45.624;11.698;2023-03-26T03:03:08;11.30;69.40
66928;DHT22;59882;45.624;11.698;2023-03-26T03:05:34;11.20;69.00
66928;DHT22;59882;45.624;11.698;2023-03-26T03:08:03;10.90;69.70
66928;DHT22;59882;45.624;11.698;2023-03-26T03:10:30;10.70;70.50
66928;DHT22;59882;45.624;11.698;2023-03-26T03:12:57;10.60;70.80
66928;DHT22;59882;45.624;11.698;2023-03-26T03:15:24;10.50;71.20
66928;DHT22;59882;45.624;11.698;2023-03-26T03:17:49;10.40;71.20
66928;DHT22;59882;45.624;11.698;2023-03-26T03:20:16;10.40;71.30
66928;DHT22;59882;45.624;11.698;2023-03-26T03:22:42;10.30;72.30
66928;DHT22;59882;45.624;11.698;2023-03-26T03:25:08;10.20;73.00
66928;DHT22;59882;45.624;11.698;2023-03-26T03:27:42;10.20;73.50
66928;DHT22;59882;45.624;11.698;2023-03-26T03:30:10;10.10;73.20
66928;DHT22;59882;45.624;11.698;2023-03-26T03:32:36;10.10;72.90
66928;DHT22;59882;45.624;11.698;2023-03-26T03:35:02;10.10;73.20
66928;DHT22;59882;45.624;11.698;2023-03-26T03:37:28;10.10;73.80
66928;DHT22;59882;45.624;11.698;2023-03-26T03:39:53;10.00;73.40
66928;DHT22;59882;45.624;11.698;2023-03-26T03:42:19;10.00;73.20
66928;DHT22;59882;45.624;11.698;2023-03-26T03:44:45;10.10;73.10
66928;DHT22;59882;45.624;11.698;2023-03-26T03:47:10;10.00;73.10
66928;DHT22;59882;45.624;11.698;2023-03-26T03:49:38;10.00;73.40
66928;DHT22;59882;45.624;11.698;2023-03-26T03:52:04;9.90;73.70
66928;DHT22;59882;45.624;11.698;2023-03-26T03:54:30;9.90;74.10
66928;DHT22;59882;45.624;11.698;2023-03-26T03:56:55;9.80;74.40
66928;DHT22;59882;45.624;11.698;2023-03-26T03:59:21;9.70;75.30
66928;DHT22;59882;45.624;11.698;2023-03-26T04:01:47;9.60;75.10
66928;DHT22;59882;45.624;11.698;2023-03-26T04:04:15;9.60;74.50
66928;DHT22;59882;45.624;11.698;2023-03-26T04:06:41;9.70;74.70
66928;DHT22;59882;45.624;11.698;2023-03-26T04:09:06;9.70;75.00
66928;DHT22;59882;45.624;11.698;2023-03-26T04:11:34;9.70;75.20
66928;DHT22;59882;45.624;11.698;2023-03-26T04:13:59;9.70;75.30
66928;DHT22;59882;45.624;11.698;2023-03-26T04:16:25;9.70;75.10
66928;DHT22;59882;45.624;11.698;2023-03-26T04:18:51;9.80;75.40
66928;DHT22;59882;45.624;11.698;2023-03-26T04:21:16;9.80;74.60
66928;DHT22;59882;45.624;11.698;2023-03-26T04:23:42;9.80;75.20
66928;DHT22;59882;45.624;11.698;2023-03-26T04:26:14;9.90;74.30
66928;DHT22;59882;45.624;11.698;2023-03-26T04:28:58;9.90;74.60
66928;DHT22;59882;45.624;11.698;2023-03-26T04:31:26;10.00;74.50
66928;DHT22;59882;45.624;11.698;2023-03-26T04:34:07;10.10;73.90
66928;DHT22;59882;45.624;11.698;2023-03-26T04:36:37;10.20;73.70
66928;DHT22;59882;45.624;11.698;2023-03-26T04:39:05;10.20;74.50
66928;DHT22;59882;45.624;11.698;2023-03-26T04:41:31;10.20;74.30
66928;DHT22;59882;45.624;11.698;2023-03-26T04:43:57;10.20;74.20
66928;DHT22;59882;45.624;11.698;2023-03-26T04:46:26;10.20;74.10
66928;DHT22;59882;45.624;11.698;2023-03-26T04:48:53;10.20;74.00
66928;DHT22;59882;45.624;11.698;2023-03-26T04:51:25;10.10;73.90
66928;DHT22;59882;45.624;11.698;2023-03-26T04:53:57;10.20;73.60
66928;DHT22;59882;45.624;11.698;2023-03-26T04:58:58;10.20;73.70
66928;DHT22;59882;45.624;11.698;2023-03-26T05:01:24;10.20;73.40
66928;DHT22;59882;45.624;11.698;2023-03-26T05:03:52;10.20;73.10
66928;DHT22;59882;45.624;11.698;2023-03-26T05:06:18;10.30;73.10
66928;DHT22;59882;45.624;11.698;2023-03-26T05:08:44;10.30;72.90
66928;DHT22;59882;45.624;11.698;2023-03-26T05:11:10;10.30;72.70
66928;DHT22;59882;45.624;11.698;2023-03-26T05:13:36;10.30;72.50
66928;DHT22;59882;45.624;11.698;2023-03-26T05:16:02;10.30;72.20
66928;DHT22;59882;45.624;11.698;2023-03-26T05:18:28;10.10;71.60
66928;DHT22;59882;45.624;11.698;2023-03-26T05:20:53;10.00;71.70
66928;DHT22;59882;45.624;11.698;2023-03-26T05:23:21;9.90;71.90
66928;DHT22;59882;45.624;11.698;2023-03-26T05:25:47;9.80;72.00
66928;DHT22;59882;45.624;11.698;2023-03-26T05:28:12;9.80;72.20
66928;DHT22;59882;45.624;11.698;2023-03-26T05:30:38;9.70;72.20
66928;DHT22;59882;45.624;11.698;2023-03-26T05:33:04;9.60;72.40
66928;DHT22;59882;45.624;11.698;2023-03-26T05:35:30;9.60;72.70
66928;DHT22;59882;45.624;11.698;2023-03-26T05:37:56;9.60;72.70
66928;DHT22;59882;45.624;11.698;2023-03-26T05:40:22;9.60;73.30
66928;DHT22;59882;45.624;11.698;2023-03-26T05:42:47;9.60;73.50
66928;DHT22;59882;45.624;11.698;2023-03-26T05:45:15;9.50;73.60
66928;DHT22;59882;45.624;11.698;2023-03-26T05:47:41;9.50;73.40
66928;DHT22;59882;45.624;11.698;2023-03-26T05:50:08;9.40;73.40
66928;DHT22;59882;45.624;11.698;2023-03-26T05:52:34;9.50;73.20
66928;DHT22;59882;45.624;11.698;2023-03-26T05:55:00;9.50;74.00
66928;DHT22;59882;45.624;11.698;2023-03-26T05:57:28;9.50;73.90
66928;DHT22;59882;45.624;11.698;2023-03-26T05:59:54;9.40;74.10
66928;DHT22;59882;45.624;11.698;2023-03-26T06:02:21;9.40;74.40
66928;DHT22;59882;45.624;11.698;2023-03-26T06:04:47;9.30;74.90
66928;DHT22;59882;45.624;11.698;2023-03-26T06:07:12;9.30;75.30
66928;DHT22;59882;45.624;11.698;2023-03-26T06:09:39;9.30;75.50
66928;DHT22;59882;45.624;11.698;2023-03-26T06:12:06;9.30;74.90
66928;DHT22;59882;45.624;11.698;2023-03-26T06:14:31;9.40;74.90
66928;DHT22;59882;45.624;11.698;2023-03-26T06:16:57;9.40;74.70
66928;DHT22;59882;45.624;11.698;2023-03-26T06:19:23;9.50;74.90
66928;DHT22;59882;45.624;11.698;2023-03-26T06:21:48;9.60;74.70
66928;DHT22;59882;45.624;11.698;2023-03-26T06:24:14;9.70;74.40
66928;DHT22;59882;45.624;11.698;2023-03-26T06:26:41;9.80;74.20
66928;DHT22;59882;45.624;11.698;2023-03-26T06:29:07;9.90;74.00
66928;DHT22;59882;45.624;11.698;2023-03-26T06:31:33;9.90;74.00
66928;DHT22;59882;45.624;11.698;2023-03-26T06:33:59;10.00;73.80
66928;DHT22;59882;45.624;11.698;2023-03-26T06:36:24;10.10;74.00
66928;DHT22;59882;45.624;11.698;2023-03-26T06:38:50;10.20;74.10
66928;DHT22;59882;45.624;11.698;2023-03-26T06:41:16;10.30;73.80
66928;DHT22;59882;45.624;11.698;2023-03-26T06:43:41;10.30;73.70
66928;DHT22;59882;45.624;11.698;2023-03-26T06:46:07;10.50;73.30
66928;DHT22;59882;45.624;11.698;2023-03-26T06:48:33;10.60;73.00
66928;DHT22;59882;45.624;11.698;2023-03-26T06:50:59;10.70;72.80
66928;DHT22;59882;45.624;11.698;2023-03-26T06:53:24;10.80;72.70
66928;DHT22;59882;45.624;11.698;2023-03-26T06:55:52;10.90;72.50
66928;DHT22;59882;45.624;11.698;2023-03-26T06:58:18;10.90;72.30
66928;DHT22;59882;45.624;11.698;2023-03-26T07:00:44;11.10;72.20
66928;DHT22;59882;45.624;11.698;2023-03-26T07:03:10;11.20;72.00
66928;DHT22;59882;45.624;11.698;2023-03-26T07:05:37;11.20;71.80
66928;DHT22;59882;45.624;11.698;2023-03-26T07:08:03;11.30;71.80
66928;DHT22;59882;45.624;11.698;2023-03-26T07:10:28;11.40;71.60
66928;DHT22;59882;45.624;11.698;2023-03-26T07:12:54;11.50;71.30
66928;DHT22;59882;45.624;11.698;2023-03-26T07:15:19;11.60;71.00
66928;DHT22;59882;45.624;11.698;2023-03-26T07:17:45;11.70;70.70
66928;DHT22;59882;45.624;11.698;2023-03-26T07:20:11;11.80;70.40
66928;DHT22;59882;45.624;11.698;2023-03-26T07:22:37;11.90;70.20
66928;DHT22;59882;45.624;11.698;2023-03-26T07:25:03;12.00;70.20
66928;DHT22;59882;45.624;11.698;2023-03-26T07:30:13;12.20;70.00
66928;DHT22;59882;45.624;11.698;2023-03-26T07:32:52;12.30;69.60
66928;DHT22;59882;45.624;11.698;2023-03-26T07:35:25;12.40;69.50
66928;DHT22;59882;45.624;11.698;2023-03-26T07:38:31;12.50;69.40
66928;DHT22;59882;45.624;11.698;2023-03-26T07:46:20;12.80;67.50
66928;DHT22;59882;45.624;11.698;2023-03-26T07:48:50;12.80;66.60
66928;DHT22;59882;45.624;11.698;2023-03-26T07:51:18;12.80;67.10
66928;DHT22;59882;45.624;11.698;2023-03-26T07:53:44;12.90;67.20
66928;DHT22;59882;45.624;11.698;2023-03-26T07:56:22;13.00;67.30
66928;DHT22;59882;45.624;11.698;2023-03-26T08:12:52;13.40;66.40
66928;DHT22;59882;45.624;11.698;2023-03-26T08:18:34;13.60;64.70
66928;DHT22;59882;45.624;11.698;2023-03-26T08:21:07;13.80;64.20
66928;DHT22;59882;45.624;11.698;2023-03-26T08:29:38;14.00;63.80
66928;DHT22;59882;45.624;11.698;2023-03-26T08:32:13;14.10;64.20
66928;DHT22;59882;45.624;11.698;2023-03-26T08:34:39;14.30;63.80
66928;DHT22;59882;45.624;11.698;2023-03-26T08:37:05;14.30;63.20
66928;DHT22;59882;45.624;11.698;2023-03-26T08:39:31;14.40;62.50
66928;DHT22;59882;45.624;11.698;2023-03-26T09:15:57;15.20;60.20
66928;DHT22;59882;45.624;11.698;2023-03-26T09:18:38;15.30;59.90
66928;DHT22;59882;45.624;11.698;2023-03-26T09:21:37;15.30;59.30
66928;DHT22;59882;45.624;11.698;2023-03-26T09:38:32;15.80;58.90
66928;DHT22;59882;45.624;11.698;2023-03-26T09:41:17;15.90;59.00
66928;DHT22;59882;45.624;11.698;2023-03-26T09:51:58;16.10;58.70
66928;DHT22;59882;45.624;11.698;2023-03-26T10:06:11;16.60;57.10
66928;DHT22;59882;45.624;11.698;2023-03-26T10:11:42;16.90;55.10
66928;DHT22;59882;45.624;11.698;2023-03-26T10:17:23;17.00;54.30
66928;DHT22;59882;45.624;11.698;2023-03-26T10:23:30;17.10;53.90
66928;DHT22;59882;45.624;11.698;2023-03-26T10:30:52;17.20;54.60
66928;DHT22;59882;45.624;11.698;2023-03-26T10:36:14;17.30;53.80
66928;DHT22;59882;45.624;11.698;2023-03-26T10:39:18;17.30;54.70
66928;DHT22;59882;45.624;11.698;2023-03-26T10:44:58;17.40;53.60
66928;DHT22;59882;45.624;11.698;2023-03-26T10:53:27;17.40;53.30
66928;DHT22;59882;45.624;11.698;2023-03-26T10:56:02;17.60;53.20
66928;DHT22;59882;45.624;11.698;2023-03-26T10:58:33;17.60;53.60
66928;DHT22;59882;45.624;11.698;2023-03-26T11:01:02;17.70;54.00
66928;DHT22;59882;45.624;11.698;2023-03-26T11:03:49;17.70;52.70
66928;DHT22;59882;45.624;11.698;2023-03-26T11:12:07;17.80;53.00
66928;DHT22;59882;45.624;11.698;2023-03-26T11:20:16;17.90;52.70
66928;DHT22;59882;45.624;11.698;2023-03-26T11:23:05;17.90;54.00
66928;DHT22;59882;45.624;11.698;2023-03-26T11:33:56;18.50;54.40
66928;DHT22;59882;45.624;11.698;2023-03-26T11:36:29;18.70;52.80
66928;DHT22;59882;45.624;11.698;2023-03-26T11:38:58;18.90;52.60
66928;DHT22;59882;45.624;11.698;2023-03-26T11:41:28;19.10;50.50
66928;DHT22;59882;45.624;11.698;2023-03-26T11:44:00;19.30;50.40
66928;DHT22;59882;45.624;11.698;2023-03-26T11:46:29;19.40;51.20
66928;DHT22;59882;45.624;11.698;2023-03-26T11:48:57;19.40;50.50
66928;DHT22;59882;45.624;11.698;2023-03-26T11:51:29;19.50;50.70
66928;DHT22;59882;45.624;11.698;2023-03-26T11:53:56;19.50;50.10
66928;DHT22;59882;45.624;11.698;2023-03-26T11:59:11;19.60;49.50
66928;DHT22;59882;45.624;11.698;2023-03-26T12:07:15;20.00;50.80
66928;DHT22;59882;45.624;11.698;2023-03-26T12:09:55;20.20;50.90
66928;DHT22;59882;45.624;11.698;2023-03-26T12:12:30;20.30;49.80
66928;DHT22;59882;45.624;11.698;2023-03-26T12:14:57;20.30;49.00
66928;DHT22;59882;45.624;11.698;2023-03-26T12:17:30;20.20;49.40
66928;DHT22;59882;45.624;11.698;2023-03-26T12:19:56;20.20;49.20
66928;DHT22;59882;45.624;11.698;2023-03-26T12:22:38;20.20;48.90
66928;DHT22;59882;45.624;11.698;2023-03-26T12:25:20;20.30;48.90
66928;DHT22;59882;45.624;11.698;2023-03-26T12:27:56;20.30;48.60
66928;DHT22;59882;45.624;11.698;2023-03-26T12:30:24;20.30;49.60
66928;DHT22;59882;45.624;11.698;2023-03-26T12:32:51;20.40;49.90
66928;DHT22;59882;45.624;11.698;2023-03-26T12:35:26;20.70;49.80
66928;DHT22;59882;45.624;11.698;2023-03-26T12:40:41;21.20;49.00
66928;DHT22;59882;45.624;11.698;2023-03-26T12:43:28;21.50;49.60
66928;DHT22;59882;45.624;11.698;2023-03-26T12:45:56;22.60;47.70
66928;DHT22;59882;45.624;11.698;2023-03-26T12:48:24;24.30;43.90
66928;DHT22;59882;45.624;11.698;2023-03-26T12:51:03;26.00;39.10
66928;DHT22;59882;45.624;11.698;2023-03-26T12:56:10;28.60;35.50
66928;DHT22;59882;45.624;11.698;2023-03-26T13:04:25;29.10;33.20
66928;DHT22;59882;45.624;11.698;2023-03-26T13:06:57;29.40;33.20
66928;DHT22;59882;45.624;11.698;2023-03-26T13:12:11;28.40;32.70
66928;DHT22;59882;45.624;11.698;2023-03-26T13:20:02;26.00;37.00
66928;DHT22;59882;45.624;11.698;2023-03-26T13:22:58;25.40;37.00
66928;DHT22;59882;45.624;11.698;2023-03-26T13:33:25;22.90;41.90
66928;DHT22;59882;45.624;11.698;2023-03-26T13:46:39;20.90;47.00
66928;DHT22;59882;45.624;11.698;2023-03-26T13:52:18;20.40;48.90
66928;DHT22;59882;45.624;11.698;2023-03-26T13:54:28;20.20;49.20
66928;DHT22;59882;45.624;11.698;2023-03-26T13:57:20;20.00;49.30
66928;DHT22;59882;45.624;11.698;2023-03-26T14:04:57;19.70;51.60
66928;DHT22;59882;45.624;11.698;2023-03-26T14:07:29;19.60;52.00
66928;DHT22;59882;45.624;11.698;2023-03-26T14:10:24;19.50;51.70
66928;DHT22;59882;45.624;11.698;2023-03-26T14:12:55;19.50;51.90
66928;DHT22;59882;45.624;11.698;2023-03-26T14:15:45;19.40;51.50
66928;DHT22;59882;45.624;11.698;2023-03-26T14:32:01;18.80;52.80
66928;DHT22;59882;45.624;11.698;2023-03-26T14:37:40;18.50;54.40
66928;DHT22;59882;45.624;11.698;2023-03-26T14:54:33;18.10;57.80
66928;DHT22;59882;45.624;11.698;2023-03-26T15:13:57;17.70;61.00
66928;DHT22;59882;45.624;11.698;2023-03-26T15:36:53;17.20;66.30
66928;DHT22;59882;45.624;11.698;2023-03-26T15:43:02;16.90;68.30
66928;DHT22;59882;45.624;11.698;2023-03-26T15:58:58;16.50;71.40
66928;DHT22;59882;45.624;11.698;2023-03-26T16:04:15;16.40;70.50
66928;DHT22;59882;45.624;11.698;2023-03-26T16:09:54;16.30;71.00
66928;DHT22;59882;45.624;11.698;2023-03-26T16:14:47;16.10;71.50
66928;DHT22;59882;45.624;11.698;2023-03-26T16:23:02;15.90;72.90
66928;DHT22;59882;45.624;11.698;2023-03-26T16:25:34;15.90;72.10
66928;DHT22;59882;45.624;11.698;2023-03-26T16:30:38;15.70;73.40
66928;DHT22;59882;45.624;11.698;2023-03-26T16:33:15;15.70;73.50
66928;DHT22;59882;45.624;11.698;2023-03-26T16:38:16;15.50;72.10
66928;DHT22;59882;45.624;11.698;2023-03-26T16:41:19;15.50;72.00
66928;DHT22;59882;45.624;11.698;2023-03-26T16:49:45;15.40;74.40
66928;DHT22;59882;45.624;11.698;2023-03-26T16:58:10;15.10;74.90
66928;DHT22;59882;45.624;11.698;2023-03-26T17:02:47;14.90;77.60
66928;DHT22;59882;45.624;11.698;2023-03-26T17:05:41;14.90;77.60
66928;DHT22;59882;45.624;11.698;2023-03-26T17:08:17;14.80;77.10
66928;DHT22;59882;45.624;11.698;2023-03-26T17:18:34;14.80;78.30
66928;DHT22;59882;45.624;11.698;2023-03-26T17:21:24;14.70;77.50
66928;DHT22;59882;45.624;11.698;2023-03-26T17:24:09;14.60;76.60
66928;DHT22;59882;45.624;11.698;2023-03-26T17:37:34;14.30;74.70
66928;DHT22;59882;45.624;11.698;2023-03-26T17:42:34;14.20;73.60
66928;DHT22;59882;45.624;11.698;2023-03-26T17:47:38;14.10;73.40
66928;DHT22;59882;45.624;11.698;2023-03-26T17:50:21;14.10;74.10
66928;DHT22;59882;45.624;11.698;2023-03-26T17:52:57;14.00;74.70
66928;DHT22;59882;45.624;11.698;2023-03-26T17:55:26;13.90;74.90
66928;DHT22;59882;45.624;11.698;2023-03-26T17:57:57;13.90;74.90
66928;DHT22;59882;45.624;11.698;2023-03-26T18:00:32;13.90;74.70
66928;DHT22;59882;45.624;11.698;2023-03-26T18:03:11;13.80;75.00
66928;DHT22;59882;45.624;11.698;2023-03-26T18:05:38;13.80;74.40
66928;DHT22;59882;45.624;11.698;2023-03-26T18:19:14;13.60;75.70
66928;DHT22;59882;45.624;11.698;2023-03-26T18:21:57;13.50;75.90
66928;DHT22;59882;45.624;11.698;2023-03-26T18:24:27;13.50;75.50
66928;DHT22;59882;45.624;11.698;2023-03-26T18:27:04;13.50;75.80
66928;DHT22;59882;45.624;11.698;2023-03-26T18:29:32;13.50;77.30
66928;DHT22;59882;45.624;11.698;2023-03-26T18:34:37;13.40;76.90
66928;DHT22;59882;45.624;11.698;2023-03-26T18:37:15;13.40;77.20
66928;DHT22;59882;45.624;11.698;2023-03-26T18:40:07;13.40;76.80
66928;DHT22;59882;45.624;11.698;2023-03-26T18:42:37;13.40;77.00
66928;DHT22;59882;45.624;11.698;2023-03-26T18:45:12;13.40;76.80
66928;DHT22;59882;45.624;11.698;2023-03-26T18:47:40;13.40;76.30
66928;DHT22;59882;45.624;11.698;2023-03-26T18:50:14;13.40;76.10
66928;DHT22;59882;45.624;11.698;2023-03-26T18:52:40;13.40;75.70
66928;DHT22;59882;45.624;11.698;2023-03-26T18:55:10;13.40;76.60
66928;DHT22;59882;45.624;11.698;2023-03-26T18:57:37;13.40;76.50
66928;DHT22;59882;45.624;11.698;2023-03-26T19:00:15;13.40;75.90
66928;DHT22;59882;45.624;11.698;2023-03-26T19:02:43;13.40;75.70
66928;DHT22;59882;45.624;11.698;2023-03-26T19:05:16;13.30;77.20
66928;DHT22;59882;45.624;11.698;2023-03-26T19:07:43;13.20;77.60
66928;DHT22;59882;45.624;11.698;2023-03-26T19:10:17;13.10;77.30
66928;DHT22;59882;45.624;11.698;2023-03-26T19:12:56;13.10;76.60
66928;DHT22;59882;45.624;11.698;2023-03-26T19:15:24;13.10;76.50
66928;DHT22;59882;45.624;11.698;2023-03-26T19:17:55;13.10;76.50
66928;DHT22;59882;45.624;11.698;2023-03-26T19:20:28;13.10;76.80
66928;DHT22;59882;45.624;11.698;2023-03-26T19:22:57;13.10;77.60
66928;DHT22;59882;45.624;11.698;2023-03-26T19:25:42;13.00;78.30
66928;DHT22;59882;45.624;11.698;2023-03-26T19:28:55;13.00;78.50
66928;DHT22;59882;45.624;11.698;2023-03-26T19:31:25;12.90;79.40
66928;DHT22;59882;45.624;11.698;2023-03-26T19:34:22;12.90;78.40
66928;DHT22;59882;45.624;11.698;2023-03-26T19:36:53;12.80;78.60
66928;DHT22;59882;45.624;11.698;2023-03-26T19:39:38;12.80;78.50
66928;DHT22;59882;45.624;11.698;2023-03-26T19:42:05;12.80;78.50
66928;DHT22;59882;45.624;11.698;2023-03-26T19:44:32;12.70;78.50
66928;DHT22;59882;45.624;11.698;2023-03-26T19:47:20;12.60;78.60
66928;DHT22;59882;45.624;11.698;2023-03-26T19:49:56;12.60;77.90
66928;DHT22;59882;45.624;11.698;2023-03-26T19:52:27;12.70;78.30
66928;DHT22;59882;45.624;11.698;2023-03-26T19:57:34;12.70;77.50
66928;DHT22;59882;45.624;11.698;2023-03-26T20:00:01;12.70;77.70
66928;DHT22;59882;45.624;11.698;2023-03-26T20:02:30;12.70;78.10
66928;DHT22;59882;45.624;11.698;2023-03-26T20:04:56;12.70;78.60
66928;DHT22;59882;45.624;11.698;2023-03-26T20:07:23;12.70;78.50
66928;DHT22;59882;45.624;11.698;2023-03-26T20:09:53;12.60;78.80
66928;DHT22;59882;45.624;11.698;2023-03-26T20:12:19;12.50;79.60
66928;DHT22;59882;45.624;11.698;2023-03-26T20:14:46;12.50;79.40
66928;DHT22;59882;45.624;11.698;2023-03-26T20:17:16;12.40;79.10
66928;DHT22;59882;45.624;11.698;2023-03-26T20:19:43;12.50;78.50
66928;DHT22;59882;45.624;11.698;2023-03-26T20:22:15;12.50;78.50
66928;DHT22;59882;45.624;11.698;2023-03-26T20:24:41;12.50;78.70
66928;DHT22;59882;45.624;11.698;2023-03-26T20:27:09;12.60;78.60
66928;DHT22;59882;45.624;11.698;2023-03-26T20:29:36;12.50;79.40
66928;DHT22;59882;45.624;11.698;2023-03-26T20:32:02;12.50;80.20
66928;DHT22;59882;45.624;11.698;2023-03-26T20:34:31;12.40;80.50
66928;DHT22;59882;45.624;11.698;2023-03-26T20:36:56;12.30;80.60
66928;DHT22;59882;45.624;11.698;2023-03-26T20:39:23;12.20;81.20
66928;DHT22;59882;45.624;11.698;2023-03-26T20:41:52;12.20;81.00
66928;DHT22;59882;45.624;11.698;2023-03-26T20:44:19;12.10;81.20
66928;DHT22;59882;45.624;11.698;2023-03-26T20:46:46;12.10;81.00
66928;DHT22;59882;45.624;11.698;2023-03-26T20:49:13;12.10;80.40
66928;DHT22;59882;45.624;11.698;2023-03-26T20:51:40;12.20;80.70
66928;DHT22;59882;45.624;11.698;2023-03-26T20:54:19;12.30;80.90
66928;DHT22;59882;45.624;11.698;2023-03-26T20:56:46;12.20;80.40
66928;DHT22;59882;45.624;11.698;2023-03-26T20:59:17;12.20;80.80
66928;DHT22;59882;45.624;11.698;2023-03-26T21:01:43;12.20;80.30
66928;DHT22;59882;45.624;11.698;2023-03-26T21:04:11;12.20;79.90
66928;DHT22;59882;45.624;11.698;2023-03-26T21:06:37;12.20;80.10
66928;DHT22;59882;45.624;11.698;2023-03-26T21:09:03;12.20;80.00
66928;DHT22;59882;45.624;11.698;2023-03-26T21:14:18;12.20;79.90
66928;DHT22;59882;45.624;11.698;2023-03-26T21:16:45;12.20;79.50
66928;DHT22;59882;45.624;11.698;2023-03-26T21:19:11;12.20;79.40
66928;DHT22;59882;45.624;11.698;2023-03-26T21:21:47;12.20;79.50
66928;DHT22;59882;45.624;11.698;2023-03-26T21:24:23;12.20;79.40
66928;DHT22;59882;45.624;11.698;2023-03-26T21:26:55;12.20;79.30
66928;DHT22;59882;45.624;11.698;2023-03-26T21:29:23;12.20;79.20
66928;DHT22;59882;45.624;11.698;2023-03-26T21:31:48;12.30;79.40
66928;DHT22;59882;45.624;11.698;2023-03-26T21:34:14;12.20;79.40
66928;DHT22;59882;45.624;11.698;2023-03-26T21:36:41;12.30;79.50
66928;DHT22;59882;45.624;11.698;2023-03-26T21:39:09;12.30;79.50
66928;DHT22;59882;45.624;11.698;2023-03-26T21:41:40;12.30;79.30
66928;DHT22;59882;45.624;11.698;2023-03-26T21:44:08;12.30;79.40
66928;DHT22;59882;45.624;11.698;2023-03-26T21:46:34;12.20;79.60
66928;DHT22;59882;45.624;11.698;2023-03-26T21:49:00;12.20;79.60
66928;DHT22;59882;45.624;11.698;2023-03-26T21:51:26;12.20;79.40
66928;DHT22;59882;45.624;11.698;2023-03-26T21:53:52;12.20;79.30
66928;DHT22;59882;45.624;11.698;2023-03-26T22:07:16;12.20;80.20
66928;DHT22;59882;45.624;11.698;2023-03-26T22:09:43;12.10;79.90
66928;DHT22;59882;45.624;11.698;2023-03-26T22:12:10;12.20;79.70
66928;DHT22;59882;45.624;11.698;2023-03-26T22:14:36;12.20;80.10